createdAt,value
2017-08-18T00:00:23.679Z,18.32
2017-08-18T00:02:50.031Z,18.21
2017-08-18T00:05:15.780Z,18.15
2017-08-18T00:07:41.582Z,18.12
2017-08-18T00:10:07.451Z,18.22
2017-08-18T00:12:33.255Z,18.19
2017-08-18T00:14:59.142Z,18.26
2017-08-18T00:17:24.907Z,18.22
2017-08-18T00:19:50.713Z,18.07
2017-08-18T00:22:16.490Z,18.17
2017-08-18T00:24:42.265Z,18.08
2017-08-18T00:27:08.051Z,18.09
2017-08-18T00:29:33.803Z,17.93
2017-08-18T00:31:59.578Z,18.01
2017-08-18T00:34:25.383Z,18.09
2017-08-18T00:36:51.142Z,18.01
2017-08-18T00:39:16.901Z,18.07
2017-08-18T00:41:42.686Z,17.91
2017-08-18T00:44:08.440Z,17.96
2017-08-18T00:46:34.260Z,17.91
2017-08-18T00:49:00.004Z,17.82
2017-08-18T00:51:25.790Z,18.02
2017-08-18T00:53:51.556Z,17.98
2017-08-18T00:56:17.351Z,17.88
2017-08-18T00:58:43.111Z,17.82
2017-08-18T01:01:08.897Z,17.95
2017-08-18T01:03:34.680Z,17.87
2017-08-18T01:06:00.475Z,17.95
2017-08-18T01:08:26.331Z,17.90
2017-08-18T01:10:52.091Z,17.60
2017-08-18T01:13:17.931Z,17.48
2017-08-18T01:15:43.689Z,17.40
2017-08-18T01:18:09.467Z,17.58
2017-08-18T01:20:35.243Z,17.74
2017-08-18T01:23:01.029Z,17.84
2017-08-18T01:25:26.790Z,17.75
2017-08-18T01:27:52.570Z,17.79
2017-08-18T01:30:18.374Z,17.70
2017-08-18T01:32:44.151Z,17.64
2017-08-18T01:35:09.894Z,17.52
2017-08-18T01:37:35.731Z,17.70
2017-08-18T01:40:01.475Z,17.70
2017-08-18T01:42:27.218Z,17.71
2017-08-18T01:44:52.999Z,17.62
2017-08-18T01:47:18.787Z,17.77
2017-08-18T01:49:44.555Z,17.81
2017-08-18T01:52:10.310Z,17.78
2017-08-18T01:54:36.087Z,17.67
2017-08-18T01:57:01.859Z,17.46
2017-08-18T01:59:27.639Z,17.60
2017-08-18T02:01:53.471Z,17.73
2017-08-18T02:04:19.227Z,17.73
2017-08-18T02:06:45.047Z,17.81
2017-08-18T02:09:10.784Z,17.87
2017-08-18T02:11:36.523Z,17.79
2017-08-18T02:14:02.319Z,17.86
2017-08-18T02:16:28.059Z,17.76
2017-08-18T02:18:53.856Z,17.76
2017-08-18T02:21:19.607Z,17.73
2017-08-18T02:23:45.358Z,17.80
2017-08-18T02:26:11.163Z,17.75
2017-08-18T02:28:36.902Z,17.76
2017-08-18T02:31:02.680Z,17.62
2017-08-18T02:33:28.479Z,17.43
2017-08-18T02:35:54.255Z,17.43
2017-08-18T02:38:20.015Z,17.36
2017-08-18T02:40:45.773Z,17.31
2017-08-18T02:43:11.567Z,17.05
2017-08-18T02:45:37.394Z,17.28
2017-08-18T02:48:03.180Z,17.39
2017-08-18T02:50:28.928Z,17.33
2017-08-18T02:52:54.766Z,17.33
2017-08-18T02:55:20.619Z,17.35
2017-08-18T02:57:46.395Z,17.23
2017-08-18T03:00:12.250Z,17.35
2017-08-18T03:02:38.085Z,17.33
2017-08-18T03:05:03.843Z,17.26
2017-08-18T03:07:29.590Z,17.25
2017-08-18T03:09:55.484Z,17.23
2017-08-18T03:12:21.235Z,17.23
2017-08-18T03:14:46.987Z,17.20
2017-08-18T03:17:12.775Z,17.19
2017-08-18T03:19:38.522Z,16.98
2017-08-18T03:22:04.303Z,17.04
2017-08-18T03:24:30.062Z,17.10
2017-08-18T03:26:55.930Z,17.13
2017-08-18T03:29:21.745Z,17.16
2017-08-18T03:31:47.507Z,17.26
2017-08-18T03:34:13.307Z,17.15
2017-08-18T03:36:39.093Z,17.13
2017-08-18T03:39:04.939Z,17.08
2017-08-18T03:41:30.691Z,17.26
2017-08-18T03:43:56.475Z,17.52
2017-08-18T03:46:22.239Z,17.48
2017-08-18T03:48:47.997Z,17.66
2017-08-18T03:51:13.787Z,17.94
2017-08-18T03:53:39.558Z,17.92
2017-08-18T03:56:05.348Z,18.17
2017-08-18T03:58:31.109Z,18.22
2017-08-18T04:00:56.915Z,18.21
2017-08-18T04:03:23.102Z,18.19
2017-08-18T04:05:48.933Z,18.21
2017-08-18T04:08:15.310Z,18.40
2017-08-18T04:10:41.211Z,18.47
2017-08-18T04:13:07.028Z,18.38
2017-08-18T04:15:32.786Z,18.38
2017-08-18T04:17:58.671Z,18.12
2017-08-18T04:20:24.496Z,18.03
2017-08-18T04:22:50.350Z,18.46
2017-08-18T04:25:16.103Z,18.58
2017-08-18T04:27:41.870Z,18.72
2017-08-18T04:30:07.642Z,18.74
2017-08-18T04:32:33.389Z,18.74
2017-08-18T04:34:59.167Z,18.40
2017-08-18T04:37:24.923Z,18.43
2017-08-18T04:39:50.799Z,18.59
2017-08-18T04:42:16.598Z,18.44
2017-08-18T04:44:42.343Z,18.71
2017-08-18T04:47:08.126Z,18.76
2017-08-18T04:49:33.914Z,19.00
2017-08-18T04:51:59.721Z,18.85
2017-08-18T04:54:25.475Z,18.82
2017-08-18T04:56:51.374Z,18.84
2017-08-18T04:59:17.164Z,18.85
2017-08-18T05:01:42.933Z,18.78
2017-08-18T05:04:08.714Z,19.03
2017-08-18T05:06:34.534Z,18.96
2017-08-18T05:09:00.363Z,18.95
2017-08-18T05:11:26.219Z,19.09
2017-08-18T05:13:51.975Z,19.24
2017-08-18T05:16:17.769Z,19.24
2017-08-18T05:18:43.575Z,19.25
2017-08-18T05:21:09.463Z,19.46
2017-08-18T05:23:35.250Z,19.37
2017-08-18T05:26:01.014Z,19.34
2017-08-18T05:28:26.846Z,19.34
2017-08-18T05:30:52.734Z,19.43
2017-08-18T05:33:18.533Z,19.35
2017-08-18T05:35:44.272Z,19.46
2017-08-18T05:38:10.035Z,19.58
2017-08-18T05:40:35.830Z,19.70
2017-08-18T05:43:01.702Z,19.89
2017-08-18T05:45:27.573Z,19.72
2017-08-18T05:47:53.424Z,19.79
2017-08-18T05:50:19.174Z,19.88
2017-08-18T05:52:44.992Z,19.79
2017-08-18T05:55:10.860Z,19.98
2017-08-18T05:57:36.659Z,20.08
2017-08-18T06:00:02.562Z,20.21
2017-08-18T06:02:28.407Z,20.39
2017-08-18T06:04:54.205Z,20.50
2017-08-18T06:07:20.006Z,20.74
2017-08-18T06:09:45.747Z,21.15
2017-08-18T06:12:11.482Z,21.15
2017-08-18T06:14:37.271Z,21.10
2017-08-18T06:17:03.052Z,21.05
2017-08-18T06:19:28.880Z,21.15
2017-08-18T06:21:54.651Z,21.38
2017-08-18T06:24:20.520Z,21.50
2017-08-18T06:26:46.274Z,21.60
2017-08-18T06:29:12.035Z,21.71
2017-08-18T06:31:37.840Z,22.15
2017-08-18T06:34:03.613Z,22.13
2017-08-18T06:36:29.366Z,22.16
2017-08-18T06:38:55.146Z,22.30
2017-08-18T06:41:20.890Z,22.03
2017-08-18T06:43:46.670Z,22.18
2017-08-18T06:48:51.591Z,22.26
2017-08-18T06:51:17.339Z,22.18
2017-08-18T06:53:43.127Z,22.19
2017-08-18T06:56:08.876Z,22.25
2017-08-18T06:58:34.663Z,22.30
2017-08-18T07:01:00.472Z,22.21
2017-08-18T07:03:26.245Z,22.46
2017-08-18T07:05:52.002Z,22.51
2017-08-18T07:08:17.787Z,22.66
2017-08-18T07:10:43.546Z,22.93
2017-08-18T07:13:09.310Z,22.83
2017-08-18T07:15:35.089Z,22.91
2017-08-18T07:18:00.879Z,22.86
2017-08-18T07:20:26.640Z,22.91
2017-08-18T07:22:52.430Z,22.69
2017-08-18T07:25:18.228Z,22.63
2017-08-18T07:27:43.974Z,22.72
2017-08-18T07:30:09.787Z,22.80
2017-08-18T07:32:35.599Z,22.94
2017-08-18T07:35:01.427Z,23.09
2017-08-18T07:37:27.176Z,23.71
2017-08-18T07:39:52.942Z,24.31
2017-08-18T07:42:18.728Z,24.87
2017-08-18T07:44:44.494Z,24.24
2017-08-18T07:47:10.262Z,24.29
2017-08-18T07:49:36.066Z,24.90
2017-08-18T07:52:01.823Z,25.50
2017-08-18T07:54:27.590Z,25.71
2017-08-18T07:56:53.467Z,25.98
2017-08-18T07:59:19.279Z,25.43
2017-08-18T08:01:45.015Z,25.15
2017-08-18T08:04:10.758Z,24.73
2017-08-18T08:06:36.563Z,24.55
2017-08-18T08:09:02.431Z,24.66
2017-08-18T08:11:28.190Z,24.71
2017-08-18T08:13:53.962Z,24.59
2017-08-18T08:16:19.702Z,24.55
2017-08-18T08:18:45.485Z,24.50
2017-08-18T08:21:11.234Z,24.83
2017-08-18T08:23:36.994Z,24.98
2017-08-18T08:26:02.792Z,24.95
2017-08-18T08:28:28.542Z,25.41
2017-08-18T08:30:54.295Z,25.88
2017-08-18T08:33:20.069Z,25.67
2017-08-18T08:35:45.843Z,25.83
2017-08-18T08:38:11.685Z,25.97
2017-08-18T08:40:37.438Z,26.03
2017-08-18T08:43:03.195Z,26.21
2017-08-18T08:45:28.991Z,25.66
2017-08-18T08:47:54.854Z,26.01
2017-08-18T08:50:20.653Z,26.44
2017-08-18T08:52:46.417Z,26.30
2017-08-18T08:55:12.220Z,26.07
2017-08-18T08:57:37.994Z,26.59
2017-08-18T09:00:03.807Z,26.89
2017-08-18T09:02:29.556Z,27.25
2017-08-18T09:04:55.385Z,27.50
2017-08-18T09:07:21.159Z,27.80
2017-08-18T09:09:46.899Z,27.25
2017-08-18T09:12:12.725Z,27.12
2017-08-18T09:14:38.510Z,27.04
2017-08-18T09:17:04.813Z,27.19
2017-08-18T09:19:30.570Z,27.15
2017-08-18T09:21:56.319Z,27.34
2017-08-18T09:24:22.096Z,27.30
2017-08-18T09:26:47.954Z,27.56
2017-08-18T09:29:13.698Z,28.04
2017-08-18T09:31:39.440Z,27.84
2017-08-18T09:34:05.265Z,27.96
2017-08-18T09:36:31.066Z,27.70
2017-08-18T09:38:56.920Z,27.92
2017-08-18T09:41:22.665Z,28.05
2017-08-18T09:43:48.542Z,27.82
2017-08-18T09:46:14.363Z,27.89
2017-08-18T09:48:52.688Z,28.38
2017-08-18T09:51:30.911Z,28.66
2017-08-18T09:54:08.866Z,28.73
2017-08-18T09:56:46.913Z,28.55
2017-08-18T09:59:12.703Z,28.56
2017-08-18T10:01:38.476Z,28.55
2017-08-18T10:04:04.331Z,28.58
2017-08-18T10:06:30.106Z,27.90
2017-08-18T10:08:55.864Z,28.42
2017-08-18T10:11:21.702Z,29.02
2017-08-18T10:13:47.459Z,28.71
2017-08-18T10:16:13.205Z,28.21
2017-08-18T10:18:39.002Z,28.50
2017-08-18T10:21:04.938Z,28.42
2017-08-18T10:23:30.707Z,28.74
2017-08-18T10:25:56.479Z,29.01
2017-08-18T10:28:22.319Z,28.73
2017-08-18T10:30:48.055Z,28.62
2017-08-18T10:33:13.827Z,29.30
2017-08-18T10:35:39.621Z,29.19
2017-08-18T10:38:05.422Z,28.85
2017-08-18T10:40:31.166Z,28.89
2017-08-18T10:42:56.954Z,28.01
2017-08-18T10:45:22.694Z,28.49
2017-08-18T10:47:48.475Z,28.38
2017-08-18T10:50:14.226Z,29.47
2017-08-18T10:52:40.019Z,29.38
2017-08-18T10:55:05.878Z,29.18
2017-08-18T10:57:31.635Z,30.17
2017-08-18T10:59:57.444Z,31.42
2017-08-18T11:02:23.200Z,31.68
2017-08-18T11:04:48.948Z,31.91
2017-08-18T11:07:14.772Z,32.34
2017-08-18T11:09:40.635Z,31.94
2017-08-18T11:12:06.378Z,32.30
2017-08-18T11:14:32.203Z,31.14
2017-08-18T11:16:58.029Z,31.22
2017-08-18T11:19:23.775Z,29.92
2017-08-18T11:21:49.539Z,30.87
2017-08-18T11:24:15.418Z,32.16
2017-08-18T11:26:41.171Z,32.79
2017-08-18T11:29:06.938Z,31.44
2017-08-18T11:31:32.696Z,31.25
2017-08-18T11:33:58.454Z,31.66
2017-08-18T11:36:24.244Z,30.14
2017-08-18T11:38:50.015Z,31.39
2017-08-18T11:41:15.771Z,31.80
2017-08-18T11:43:41.554Z,32.33
2017-08-18T11:46:07.311Z,31.63
2017-08-18T11:48:33.098Z,31.21
2017-08-18T11:50:58.858Z,30.79
2017-08-18T11:53:24.606Z,32.35
2017-08-18T11:55:50.384Z,32.04
2017-08-18T11:58:16.171Z,30.38
2017-08-18T12:00:41.947Z,30.48
2017-08-18T12:03:07.719Z,30.56
2017-08-18T12:05:33.508Z,32.10
2017-08-18T12:07:59.290Z,31.93
2017-08-18T12:10:25.091Z,31.08
2017-08-18T12:12:50.852Z,33.61
2017-08-18T12:15:16.655Z,33.25
2017-08-18T12:17:42.400Z,33.41
2017-08-18T12:20:08.150Z,32.44
2017-08-18T12:22:33.950Z,32.83
2017-08-18T12:24:59.730Z,33.56
2017-08-18T12:27:25.649Z,32.51
2017-08-18T12:29:51.438Z,32.95
2017-08-18T12:32:17.183Z,33.40
2017-08-18T12:34:42.926Z,32.07
2017-08-18T12:37:08.728Z,32.04
2017-08-18T12:39:34.487Z,32.13
2017-08-18T12:42:00.293Z,32.17
2017-08-18T12:44:26.075Z,31.34
2017-08-18T12:46:51.824Z,32.13
2017-08-18T12:49:17.614Z,33.45
2017-08-18T12:51:43.400Z,32.96
2017-08-18T12:54:09.270Z,34.20
2017-08-18T12:56:35.078Z,32.37
2017-08-18T12:59:00.916Z,32.04
2017-08-18T13:01:27.111Z,30.75
2017-08-18T13:03:52.942Z,29.87
2017-08-18T13:06:18.731Z,30.00
2017-08-18T13:08:45.167Z,29.94
2017-08-18T13:11:11.013Z,29.94
2017-08-18T13:13:36.858Z,29.94
2017-08-18T13:16:02.598Z,29.63
2017-08-18T13:18:28.452Z,30.20
2017-08-18T13:20:54.282Z,29.67
2017-08-18T13:23:20.035Z,29.76
2017-08-18T13:25:45.803Z,29.75
2017-08-18T13:28:11.759Z,29.95
2017-08-18T13:30:37.562Z,30.22
2017-08-18T13:33:03.375Z,30.74
2017-08-18T13:35:29.139Z,31.74
2017-08-18T13:37:55.023Z,31.67
2017-08-18T13:40:20.775Z,32.19
2017-08-18T13:42:46.587Z,31.86
2017-08-18T13:45:12.367Z,31.18
2017-08-18T13:47:38.115Z,31.38
2017-08-18T13:50:03.897Z,31.16
2017-08-18T13:52:29.667Z,31.01
2017-08-18T13:54:55.436Z,30.40
2017-08-18T13:57:21.229Z,30.68
2017-08-18T13:59:47.041Z,30.34
2017-08-18T14:02:12.810Z,30.69
2017-08-18T14:04:38.623Z,30.11
2017-08-18T14:07:04.414Z,29.98
2017-08-18T14:09:30.174Z,29.58
2017-08-18T14:11:55.910Z,29.91
2017-08-18T14:14:21.703Z,29.99
2017-08-18T14:16:47.470Z,29.54
2017-08-18T14:19:13.271Z,29.76
2017-08-18T14:21:39.030Z,28.68
2017-08-18T14:24:04.783Z,28.76
2017-08-18T14:26:36.579Z,28.61
2017-08-18T14:29:02.361Z,28.09
2017-08-18T14:31:28.211Z,27.79
2017-08-18T14:33:53.987Z,28.15
2017-08-18T14:36:19.743Z,27.78
2017-08-18T14:38:45.542Z,27.28
2017-08-18T14:41:11.331Z,26.94
2017-08-18T14:43:37.122Z,27.23
2017-08-18T14:46:02.884Z,26.80
2017-08-18T14:48:28.754Z,26.19
2017-08-18T14:50:54.532Z,26.36
2017-08-18T14:53:20.328Z,25.93
2017-08-18T14:55:46.119Z,25.86
2017-08-18T14:58:11.871Z,26.04
2017-08-18T15:00:37.679Z,25.84
2017-08-18T15:03:03.458Z,25.63
2017-08-18T15:05:29.279Z,25.47
2017-08-18T15:07:55.023Z,25.09
2017-08-18T15:10:20.843Z,24.62
2017-08-18T15:12:46.627Z,24.40
2017-08-18T15:15:12.415Z,24.19
2017-08-18T15:17:38.231Z,23.98
2017-08-18T15:20:04.008Z,23.90
2017-08-18T15:22:29.769Z,23.94
2017-08-18T15:24:55.622Z,24.06
2017-08-18T15:27:21.386Z,23.89
2017-08-18T15:29:47.143Z,23.80
2017-08-18T15:32:12.924Z,23.54
2017-08-18T15:34:38.676Z,23.71
2017-08-18T15:37:04.454Z,23.47
2017-08-18T15:39:30.239Z,22.96
2017-08-18T15:41:55.995Z,22.24
2017-08-18T15:44:21.779Z,21.51
2017-08-18T15:46:47.547Z,21.21
2017-08-18T15:49:13.308Z,20.70
2017-08-18T15:51:39.074Z,20.34
2017-08-18T15:54:04.855Z,20.14
2017-08-18T15:56:30.606Z,19.69
2017-08-18T15:58:56.371Z,19.43
2017-08-18T16:01:22.157Z,19.17
2017-08-18T16:03:47.939Z,19.13
2017-08-18T16:06:13.722Z,18.90
2017-08-18T16:08:40.306Z,18.86
2017-08-18T16:11:06.095Z,18.82
2017-08-18T16:13:31.882Z,18.68
2017-08-18T16:15:57.639Z,18.66
2017-08-18T16:18:23.426Z,18.68
2017-08-18T16:20:49.219Z,18.79
2017-08-18T16:23:14.983Z,18.76
2017-08-18T16:25:40.866Z,18.75
2017-08-18T16:28:06.643Z,18.57
2017-08-18T16:30:32.462Z,18.76
2017-08-18T16:32:58.343Z,18.56
2017-08-18T16:35:24.156Z,18.59
2017-08-18T16:37:50.117Z,18.50
2017-08-18T16:40:15.863Z,18.58
2017-08-18T16:42:41.630Z,18.39
2017-08-18T16:45:07.487Z,18.27
2017-08-18T16:47:33.275Z,18.05
2017-08-18T16:49:59.065Z,18.18
2017-08-18T16:52:24.840Z,17.94
2017-08-18T16:54:50.611Z,17.94
2017-08-18T16:57:16.386Z,17.80
2017-08-18T16:59:42.185Z,17.79
2017-08-18T17:02:07.951Z,17.81
2017-08-18T17:04:33.748Z,17.72
2017-08-18T17:06:59.522Z,17.63
2017-08-18T17:09:25.268Z,17.48
2017-08-18T17:11:51.115Z,17.74
2017-08-18T17:14:17.299Z,17.53
2017-08-18T17:16:43.051Z,17.39
2017-08-18T17:19:08.824Z,17.35
2017-08-18T17:21:34.599Z,17.18
2017-08-18T17:24:00.394Z,17.20
2017-08-18T17:26:26.145Z,17.14
2017-08-18T17:28:51.923Z,17.32
2017-08-18T17:31:17.731Z,17.32
2017-08-18T17:33:43.489Z,17.31
2017-08-18T17:36:09.282Z,17.30
2017-08-18T17:38:35.058Z,17.20
2017-08-18T17:41:00.899Z,17.31
2017-08-18T17:43:26.646Z,17.25
2017-08-18T17:45:52.459Z,17.36
2017-08-18T17:48:18.279Z,17.36
2017-08-18T17:50:44.037Z,17.54
2017-08-18T17:53:09.849Z,17.80
2017-08-18T17:55:35.631Z,17.61
2017-08-18T17:58:01.382Z,17.58
2017-08-18T18:00:27.191Z,17.73
2017-08-18T18:02:53.034Z,18.03
2017-08-18T18:05:18.809Z,17.88
2017-08-18T18:07:44.621Z,17.82
2017-08-18T18:10:10.432Z,17.64
2017-08-18T18:12:36.235Z,17.67
2017-08-18T18:15:01.980Z,17.79
2017-08-18T18:17:27.750Z,17.96
2017-08-18T18:19:53.498Z,17.97
2017-08-18T18:22:19.279Z,17.92
2017-08-18T18:24:45.034Z,17.77
2017-08-18T18:27:10.797Z,17.82
2017-08-18T18:29:36.611Z,17.83
2017-08-18T18:32:02.360Z,17.65
2017-08-18T18:34:28.116Z,17.54
2017-08-18T18:36:53.974Z,17.52
2017-08-18T18:39:19.727Z,17.49
2017-08-18T18:41:45.515Z,17.44
2017-08-18T18:44:11.282Z,17.33
2017-08-18T18:46:37.023Z,17.30
2017-08-18T18:49:02.914Z,17.28
2017-08-18T18:51:28.694Z,17.30
2017-08-18T18:53:54.495Z,17.28
2017-08-18T18:56:20.352Z,17.21
2017-08-18T18:58:46.115Z,17.20
2017-08-18T19:01:11.919Z,17.08
2017-08-18T19:03:37.690Z,17.06
2017-08-18T19:06:03.634Z,17.08
2017-08-18T19:08:29.422Z,16.98
2017-08-18T19:10:55.167Z,16.92
2017-08-18T19:13:20.919Z,16.89
2017-08-18T19:15:46.720Z,16.97
2017-08-18T19:18:12.466Z,16.94
2017-08-18T19:20:38.227Z,17.03
2017-08-18T19:23:04.003Z,17.09
2017-08-18T19:25:29.782Z,17.10
2017-08-18T19:27:55.549Z,17.16
2017-08-18T19:30:21.314Z,17.15
2017-08-18T19:32:47.174Z,17.16
2017-08-18T19:35:12.931Z,17.11
2017-08-18T19:37:38.783Z,17.14
2017-08-18T19:40:04.573Z,17.12
2017-08-18T19:42:30.342Z,17.13
2017-08-18T19:47:35.955Z,17.13
2017-08-18T19:50:01.700Z,17.12
2017-08-18T19:52:27.582Z,17.11
2017-08-18T19:54:53.354Z,17.05
2017-08-18T19:57:19.106Z,17.17
2017-08-18T19:59:44.950Z,17.09
2017-08-18T20:02:10.694Z,17.03
2017-08-18T20:04:36.514Z,17.04
2017-08-18T20:07:02.274Z,17.09
2017-08-18T20:09:28.057Z,17.10
2017-08-18T20:11:53.819Z,17.00
2017-08-18T20:14:19.590Z,16.96
2017-08-18T20:16:45.375Z,17.00
2017-08-18T20:19:11.119Z,16.90
2017-08-18T20:21:36.894Z,16.81
2017-08-18T20:24:02.674Z,16.74
2017-08-18T20:26:28.483Z,16.72
2017-08-18T20:28:54.250Z,16.83
2017-08-18T20:31:20.014Z,16.87
2017-08-18T20:33:45.759Z,16.75
2017-08-18T20:36:11.546Z,16.84
2017-08-18T20:38:37.331Z,16.73
2017-08-18T20:41:03.119Z,16.69
2017-08-18T20:43:28.919Z,16.59
2017-08-18T20:45:54.670Z,16.59
2017-08-18T20:48:20.548Z,16.49
2017-08-18T20:50:46.374Z,16.52
2017-08-18T20:53:12.155Z,16.39
2017-08-18T20:55:37.914Z,16.48
2017-08-18T20:58:03.754Z,16.42
2017-08-18T21:00:29.567Z,16.38
2017-08-18T21:02:55.335Z,16.46
2017-08-18T21:05:21.095Z,16.36
2017-08-18T21:07:46.879Z,16.42
2017-08-18T21:10:12.622Z,16.46
2017-08-18T21:12:38.437Z,16.50
2017-08-18T21:15:04.191Z,16.47
2017-08-18T21:17:29.995Z,16.45
2017-08-18T21:19:55.786Z,16.38
2017-08-18T21:22:21.525Z,16.38
2017-08-18T21:24:47.287Z,16.41
2017-08-18T21:27:13.099Z,16.36
2017-08-18T21:29:38.911Z,16.42
2017-08-18T21:32:04.691Z,16.41
2017-08-18T21:34:30.515Z,16.35
2017-08-18T21:36:56.265Z,16.44
2017-08-18T21:39:22.046Z,16.53
2017-08-18T21:41:47.803Z,16.54
2017-08-18T21:44:13.586Z,16.58
2017-08-18T21:46:39.346Z,16.54
2017-08-18T21:49:05.131Z,16.54
2017-08-18T21:51:30.894Z,16.58
2017-08-18T21:53:56.707Z,16.59
2017-08-18T21:56:22.479Z,16.64
2017-08-18T21:58:48.240Z,16.66
2017-08-18T22:01:14.050Z,16.63
2017-08-18T22:03:39.830Z,16.62
2017-08-18T22:06:05.628Z,16.53
2017-08-18T22:08:31.422Z,16.58
2017-08-18T22:10:57.171Z,16.68
2017-08-18T22:13:22.954Z,16.59
2017-08-18T22:15:48.755Z,16.70
2017-08-18T22:18:14.531Z,16.74
2017-08-18T22:20:40.270Z,16.71
2017-08-18T22:23:06.067Z,16.65
2017-08-18T22:25:31.857Z,16.56
2017-08-18T22:27:57.637Z,16.61
2017-08-18T22:30:23.415Z,16.56
2017-08-18T22:32:49.271Z,16.56
2017-08-18T22:35:15.015Z,16.58
2017-08-18T22:37:40.778Z,16.61
2017-08-18T22:40:06.635Z,16.41
2017-08-18T22:42:32.415Z,16.50
2017-08-18T22:44:58.171Z,16.50
2017-08-18T22:47:23.986Z,16.48
2017-08-18T22:49:49.750Z,16.43
2017-08-18T22:52:15.522Z,16.36
2017-08-18T22:54:41.351Z,16.42
2017-08-18T22:57:07.131Z,16.50
2017-08-18T22:59:32.902Z,16.42
2017-08-18T23:01:58.659Z,16.49
2017-08-18T23:04:24.450Z,16.49
2017-08-18T23:06:50.216Z,16.52
2017-08-18T23:09:15.962Z,16.50
2017-08-18T23:11:41.723Z,16.60
2017-08-18T23:14:07.495Z,16.59
2017-08-18T23:16:33.274Z,16.50
2017-08-18T23:18:59.022Z,16.40
2017-08-18T23:21:24.860Z,16.30
2017-08-18T23:23:50.604Z,16.31
2017-08-18T23:26:16.371Z,16.06
2017-08-18T23:28:42.142Z,16.23
2017-08-18T23:31:07.942Z,16.19
2017-08-18T23:33:33.712Z,16.34
2017-08-18T23:35:59.467Z,16.42
2017-08-18T23:38:25.264Z,16.01
2017-08-18T23:40:51.015Z,15.94
2017-08-18T23:43:16.790Z,15.95
2017-08-18T23:45:42.547Z,16.10
2017-08-18T23:48:08.334Z,16.08
2017-08-18T23:50:34.070Z,16.23
2017-08-18T23:52:59.831Z,16.06
2017-08-18T23:55:25.610Z,16.00
2017-08-18T23:57:51.398Z,15.92
